Time;durP1;ratioP1;P1;durP2;ratioP2;P2;SDS_P1;SDS_P2;PMS_P1;PMS_P2;Temp;Humidity;BMP_temperature;BMP_pressure;BME280_temperature;BME280_humidity;BME280_pressure;Samples;Min_cycle;Max_cycle;Signal;HPM_P1;HPM_P2
2023/05/04 00:01:12;;;;;;;4.03;2.60;;;;;;;8.39;58.29;149408.13;5103178;28;20074;-63
2023/05/04 00:03:37;;;;;;;4.95;2.70;;;;;;;8.31;57.34;149387.69;5085736;28;20028;-63
2023/05/04 00:06:03;;;;;;;7.72;3.08;;;;;;;8.27;58.59;149377.44;5064766;28;20292;-63
2023/05/04 00:08:30;;;;;;;8.48;2.60;;;;;;;8.32;58.40;149390.22;5090172;28;20058;-63
2023/05/04 00:10:55;;;;;;;4.57;2.55;;;;;;;8.22;59.11;149364.63;5081901;28;20074;-62
2023/05/04 00:13:21;;;;;;;5.60;2.55;;;;;;;8.19;60.27;149356.94;5082934;28;20272;-62
2023/05/04 00:15:47;;;;;;;4.45;2.60;;;;;;;8.15;58.51;149346.72;5101081;28;20040;-62
2023/05/04 00:18:12;;;;;;;5.40;2.70;;;;;;;8.16;60.50;149350.53;5089185;28;20028;-64
2023/05/04 00:20:38;;;;;;;4.15;2.42;;;;;;;8.15;60.85;149346.72;5091225;28;20055;-63
2023/05/04 00:23:03;;;;;;;4.53;2.72;;;;;;;8.12;60.42;149340.28;5098932;28;20032;-65
2023/05/04 00:25:29;;;;;;;4.03;2.72;;;;;;;8.04;60.45;149321.13;5082126;28;20035;-64
2023/05/04 00:27:55;;;;;;;7.65;2.78;;;;;;;8.06;61.16;149324.97;5081830;28;20096;-63
2023/05/04 00:30:21;;;;;;;6.05;3.20;;;;;;;8.05;61.37;149322.38;5096499;28;20073;-63
2023/05/04 00:32:46;;;;;;;4.40;2.97;;;;;;;8.05;62.63;149323.69;5102311;28;20031;-64
2023/05/04 00:35:12;;;;;;;5.65;3.05;;;;;;;8.02;61.79;149314.72;5097644;28;20028;-64
2023/05/04 00:37:38;;;;;;;8.40;3.47;;;;;;;8.05;61.52;149322.38;5082253;28;20034;-64
2023/05/04 00:40:04;;;;;;;6.88;3.72;;;;;;;7.93;60.16;149292.97;5102698;28;20031;-64
2023/05/04 00:42:29;;;;;;;7.38;3.38;;;;;;;7.94;61.20;149295.53;5100599;28;20039;-64
2023/05/04 00:44:55;;;;;;;9.30;3.38;;;;;;;7.92;59.78;149290.38;5102173;28;20027;-64
2023/05/04 00:47:21;;;;;;;9.15;3.20;;;;;;;7.89;61.12;149282.72;5102011;28;20324;-64
2023/05/04 00:49:47;;;;;;;5.43;3.35;;;;;;;7.88;61.03;149280.16;5100923;28;20043;-66
2023/05/04 00:52:14;;;;;;;4.30;3.15;;;;;;;7.88;61.32;149281.47;5082060;28;20032;-65
2023/05/04 00:54:45;;;;;;;7.22;3.55;;;;;;;7.76;60.12;149252.00;5081610;28;20078;-65
2023/05/04 00:57:11;;;;;;;5.30;3.10;;;;;;;7.76;59.95;149250.72;5081908;28;20044;-66
2023/05/04 00:59:38;;;;;;;6.85;2.88;;;;;;;7.78;60.06;149257.13;5090191;28;20077;-65
2023/05/04 01:02:03;;;;;;;4.93;2.65;;;;;;;7.74;60.41;149245.63;5098736;28;20024;-66
2023/05/04 01:04:29;;;;;;;6.47;2.78;;;;;;;7.80;61.08;149260.97;5081993;28;20108;-65
2023/05/04 01:07:07;;;;;;;4.57;3.10;;;;;;;7.73;60.79;149243.06;5100731;28;20032;-65
2023/05/04 01:09:44;;;;;;;4.90;2.78;;;;;;;7.72;59.98;149241.75;5086149;28;20131;-65
2023/05/04 01:12:38;;;;;;;5.97;2.88;;;;;;;7.59;60.84;149209.75;5094464;28;20024;-65
2023/05/04 01:15:04;;;;;;;4.22;2.92;;;;;;;7.69;60.67;149232.81;5101820;28;20053;-65
2023/05/04 01:17:30;;;;;;;7.25;3.03;;;;;;;7.62;59.76;149214.91;5095048;28;20042;-65
2023/05/04 01:19:56;;;;;;;3.97;2.35;;;;;;;7.65;60.10;149223.84;5089830;28;20032;-63
2023/05/04 01:22:21;;;;;;;7.88;2.78;;;;;;;7.59;60.24;149209.75;5101847;28;20039;-64
2023/05/04 01:24:48;;;;;;;4.80;2.67;;;;;;;7.56;60.80;149200.84;5084296;28;20104;-64
2023/05/04 01:27:30;;;;;;;4.78;2.83;;;;;;;7.62;60.15;149214.91;5081697;28;20024;-64
2023/05/04 01:30:30;;;;;;;3.63;2.30;;;;;;;7.54;60.47;149195.69;5074107;28;20309;-64
2023/05/04 01:32:57;;;;;;;3.65;2.50;;;;;;;7.45;61.60;149172.69;5058008;28;20043;-65
2023/05/04 01:35:23;;;;;;;5.22;2.92;;;;;;;7.47;61.19;149177.78;5096222;28;20055;-65
2023/05/04 01:37:49;;;;;;;4.78;2.60;;;;;;;7.46;59.20;149175.25;5081579;28;20032;-64
2023/05/04 01:40:15;;;;;;;4.35;2.35;;;;;;;7.37;59.12;149153.50;5081708;28;20347;-65
2023/05/04 01:42:40;;;;;;;3.38;2.10;;;;;;;7.31;59.84;149139.44;5083950;28;20092;-65
2023/05/04 01:45:07;;;;;;;4.40;2.70;;;;;;;7.25;59.47;149124.06;5081748;28;20016;-65
2023/05/04 01:47:33;;;;;;;6.70;2.13;;;;;;;7.21;59.51;149115.13;5087680;28;20032;-65
2023/05/04 01:49:58;;;;;;;3.92;2.22;;;;;;;7.22;58.90;149116.38;5103303;28;20032;-65
2023/05/04 01:52:24;;;;;;;15.82;2.85;;;;;;;7.13;59.22;149093.41;5085389;28;20024;-64
2023/05/04 01:54:50;;;;;;;7.82;2.47;;;;;;;7.20;59.49;149112.56;5103356;28;20066;-65
2023/05/04 01:57:15;;;;;;;4.25;2.40;;;;;;;7.18;59.46;149106.16;5092613;28;20220;-64
2023/05/04 01:59:41;;;;;;;6.13;3.00;;;;;;;7.25;60.12;149124.06;5085138;28;20024;-65
2023/05/04 02:02:06;;;;;;;4.45;2.70;;;;;;;7.26;59.63;149126.63;5085481;28;20205;-65
2023/05/04 02:04:32;;;;;;;3.90;2.70;;;;;;;7.23;59.30;149118.97;5085046;28;20051;-65
2023/05/04 02:06:58;;;;;;;4.00;2.53;;;;;;;7.18;59.05;149106.16;5104211;28;20054;-65
2023/05/04 02:09:24;;;;;;;5.75;2.63;;;;;;;7.19;58.47;149108.72;5091233;28;20032;-65
2023/05/04 02:11:50;;;;;;;5.85;2.50;;;;;;;7.22;59.36;149116.38;5094212;28;20020;-65
2023/05/04 02:14:15;;;;;;;2.83;2.45;;;;;;;7.24;60.38;149122.81;5100510;28;20031;-65
2023/05/04 02:16:41;;;;;;;4.07;2.97;;;;;;;7.25;60.46;149125.38;5084886;28;20024;-65
2023/05/04 02:19:06;;;;;;;6.50;3.00;;;;;;;7.21;59.97;149113.81;5086756;28;20039;-66
2023/05/04 02:21:32;;;;;;;9.18;3.30;;;;;;;7.18;60.74;149106.16;5105043;28;20216;-65
2023/05/04 02:23:58;;;;;;;5.68;2.58;;;;;;;7.24;61.01;149121.53;5104834;28;20028;-65
2023/05/04 02:26:24;;;;;;;7.50;3.00;;;;;;;7.22;61.86;149116.38;5099397;28;20020;-65
2023/05/04 02:28:49;;;;;;;3.42;2.78;;;;;;;7.26;61.71;149127.91;5085323;28;20024;-64
2023/05/04 02:31:15;;;;;;;4.10;2.88;;;;;;;7.32;62.50;149141.97;5104965;28;20116;-64
2023/05/04 02:33:40;;;;;;;3.60;2.92;;;;;;;7.34;61.80;149145.78;5104647;28;20321;-64
2023/05/04 02:36:06;;;;;;;5.80;2.60;;;;;;;7.35;61.85;149148.38;5093573;28;20025;-65
2023/05/04 02:38:32;;;;;;;6.05;3.70;;;;;;;7.47;61.55;149177.78;5073143;28;20039;-65
2023/05/04 02:40:57;;;;;;;3.08;2.55;;;;;;;7.64;60.14;149220.00;5103967;28;20091;-64
2023/05/04 02:43:23;;;;;;;7.20;2.92;;;;;;;7.82;59.92;149264.81;5104605;28;20212;-64
2023/05/04 02:45:48;;;;;;;5.95;2.85;;;;;;;8.42;56.76;149415.84;5099370;28;20020;-64
2023/05/04 02:48:14;;;;;;;6.53;3.10;;;;;;;8.94;54.84;149543.94;5104316;28;20027;-63
2023/05/04 02:50:40;;;;;;;6.80;2.80;;;;;;;9.12;54.12;149590.06;5096929;28;20028;-64
2023/05/04 02:53:05;;;;;;;7.05;2.63;;;;;;;9.03;55.64;149567.00;5086700;28;20122;-65
2023/05/04 02:55:31;;;;;;;7.00;3.00;;;;;;;9.03;55.60;149567.00;5086412;28;20016;-64
2023/05/04 02:57:57;;;;;;;6.75;3.53;;;;;;;8.95;54.65;149546.47;5085975;28;20036;-64
2023/05/04 03:00:23;;;;;;;6.55;3.03;;;;;;;9.22;56.10;149613.09;5097261;28;20024;-65
2023/05/04 03:02:48;;;;;;;5.97;3.22;;;;;;;9.27;55.01;149627.19;5095358;28;20323;-65
2023/05/04 03:05:14;;;;;;;7.38;3.08;;;;;;;9.41;54.64;149660.53;5083640;28;20040;-64
2023/05/04 03:07:40;;;;;;;4.75;2.78;;;;;;;9.42;54.35;149664.38;5083811;28;20047;-64
2023/05/04 03:10:07;;;;;;;4.85;2.70;;;;;;;9.31;53.64;149636.19;5085324;28;20043;-64
2023/05/04 03:12:33;;;;;;;6.90;3.10;;;;;;;9.35;54.33;149645.13;5103965;28;20208;-64
2023/05/04 03:14:58;;;;;;;8.40;3.35;;;;;;;9.28;54.18;149629.78;5093974;28;20044;-64
2023/05/04 03:17:24;;;;;;;5.25;2.95;;;;;;;9.25;54.27;149622.09;5083402;28;20098;-64
2023/05/04 03:19:49;;;;;;;5.40;3.17;;;;;;;9.12;55.90;149588.75;5083480;28;20082;-64
2023/05/04 03:22:15;;;;;;;3.85;3.00;;;;;;;9.12;55.67;149590.06;5103860;28;20503;-64
2023/05/04 03:24:40;;;;;;;6.40;2.80;;;;;;;9.20;55.37;149609.25;5087476;28;20069;-64
2023/05/04 03:27:06;;;;;;;6.18;2.95;;;;;;;9.35;54.18;149645.13;5093802;28;20024;-65
2023/05/04 03:29:31;;;;;;;6.95;3.08;;;;;;;9.28;54.23;149628.50;5103115;28;20328;-64
2023/05/04 03:31:57;;;;;;;4.43;3.15;;;;;;;9.40;53.78;149659.22;5101602;28;20035;-65
2023/05/04 03:34:23;;;;;;;4.55;3.00;;;;;;;9.66;54.28;149724.59;5103634;28;20251;-65
2023/05/04 03:36:48;;;;;;;5.18;3.38;;;;;;;9.81;52.32;149760.50;5086851;28;20024;-65
2023/05/04 03:39:15;;;;;;;8.82;2.80;;;;;;;9.88;51.41;149777.16;5083111;28;20243;-66
2023/05/04 03:41:41;;;;;;;7.47;3.00;;;;;;;9.91;51.60;149786.09;5090227;28;20376;-66
2023/05/04 03:44:07;;;;;;;5.45;2.45;;;;;;;9.95;51.13;149795.09;5101029;28;20039;-64
2023/05/04 03:46:32;;;;;;;8.43;5.13;;;;;;;9.97;52.54;149801.47;5101299;28;20211;-63
2023/05/04 03:48:58;;;;;;;5.70;2.85;;;;;;;10.06;52.73;149822.00;5103081;28;20024;-64
2023/05/04 03:51:23;;;;;;;8.48;2.58;;;;;;;10.11;51.58;149836.09;5089951;28;20097;-64
2023/05/04 03:53:49;;;;;;;5.40;2.22;;;;;;;10.18;50.17;149852.78;5090611;28;20313;-64
2023/05/04 03:56:15;;;;;;;5.22;2.30;;;;;;;10.19;50.88;149856.63;5102901;28;20043;-64
2023/05/04 03:58:40;;;;;;;4.30;2.45;;;;;;;10.32;50.22;149887.41;5103718;28;20031;-64
2023/05/04 04:01:06;;;;;;;4.82;2.53;;;;;;;10.30;50.04;149883.56;5103076;28;20077;-65
2023/05/04 04:03:31;;;;;;;3.33;2.53;;;;;;;10.16;50.43;149848.94;5102769;28;20035;-65
2023/05/04 04:05:58;;;;;;;3.10;2.50;;;;;;;10.19;50.72;149856.63;5075583;28;20071;-64
2023/05/04 04:08:23;;;;;;;5.95;2.25;;;;;;;10.21;50.73;149859.19;5087090;28;20039;-64
2023/05/04 04:10:49;;;;;;;4.05;2.13;;;;;;;10.27;50.12;149874.56;5102876;28;20220;-64
2023/05/04 04:13:14;;;;;;;7.25;2.45;;;;;;;10.26;49.63;149872.00;5083319;28;20070;-64
2023/05/04 04:15:43;;;;;;;3.42;2.28;;;;;;;10.32;49.89;149887.41;5102549;28;20327;-64
2023/05/04 04:18:10;;;;;;;5.55;2.38;;;;;;;10.34;50.26;149892.56;5091948;28;20302;-64
2023/05/04 04:20:35;;;;;;;5.15;2.30;;;;;;;10.34;50.04;149892.56;5088656;28;20027;-65
2023/05/04 04:23:01;;;;;;;9.93;2.40;;;;;;;10.34;50.32;149892.56;5083343;28;20231;-65
2023/05/04 04:25:27;;;;;;;3.20;2.20;;;;;;;10.34;53.24;149892.56;5082437;28;20044;-64
2023/05/04 04:27:52;;;;;;;2.58;2.15;;;;;;;10.28;51.98;149878.41;5099121;28;20091;-66
2023/05/04 04:30:18;;;;;;;21.33;12.45;;;;;;;10.36;50.33;149898.97;5090390;28;20462;-64
2023/05/04 04:32:44;;;;;;;4.07;2.35;;;;;;;10.46;49.75;149922.03;5094623;28;20052;-64
2023/05/04 04:35:10;;;;;;;5.80;2.15;;;;;;;10.50;48.46;149932.31;5082204;28;20033;-64
2023/05/04 04:37:35;;;;;;;2.10;1.65;;;;;;;10.57;47.65;149949.00;5082254;28;20325;-64
2023/05/04 04:40:02;;;;;;;3.15;2.10;;;;;;;10.67;48.64;149975.94;5099960;28;20024;-64
2023/05/04 04:42:29;;;;;;;3.85;1.70;;;;;;;10.68;47.53;149978.47;5088058;28;20029;-64
2023/05/04 04:44:55;;;;;;;5.47;1.88;;;;;;;10.87;47.91;150025.97;5086350;28;20261;-62
2023/05/04 04:47:20;;;;;;;3.45;1.70;;;;;;;11.06;47.10;150072.13;5102089;28;20077;-63
2023/05/04 04:49:46;;;;;;;6.93;2.20;;;;;;;11.82;46.66;150260.78;5101951;28;20035;-64
2023/05/04 04:52:12;;;;;;;5.25;1.75;;;;;;;12.74;45.27;150490.66;5086664;28;20047;-65
2023/05/04 04:54:37;;;;;;;4.35;1.75;;;;;;;13.50;45.37;150680.91;5087344;28;20209;-65
2023/05/04 04:57:03;;;;;;;5.35;2.10;;;;;;;13.48;42.01;150675.72;5091466;28;20030;-65
2023/05/04 04:59:28;;;;;;;4.13;1.73;;;;;;;14.16;41.87;150845.44;5079131;28;20523;-66
2023/05/04 05:01:55;;;;;;;4.10;1.63;;;;;;;14.36;40.83;150894.31;5093966;28;20089;-65
2023/05/04 05:04:21;;;;;;;4.80;1.50;;;;;;;15.03;40.97;151062.88;5067293;28;20116;-65
2023/05/04 05:06:47;;;;;;;2.17;1.63;;;;;;;15.89;37.55;151277.91;5086230;28;20037;-66
2023/05/04 05:09:13;;;;;;;7.55;1.70;;;;;;;16.35;36.61;151392.50;5097906;28;20331;-65
2023/05/04 05:11:38;;;;;;;2.35;1.63;;;;;;;16.37;36.98;151397.63;5095369;28;20087;-66
2023/05/04 05:14:05;;;;;;;3.88;1.60;;;;;;;16.14;39.07;151339.69;5096213;28;20036;-67
2023/05/04 05:16:30;;;;;;;6.60;2.17;;;;;;;16.01;38.39;151307.50;5083805;28;20051;-66
2023/05/04 05:18:56;;;;;;;2.40;1.60;;;;;;;15.99;37.28;151302.31;5085933;28;20198;-66
2023/05/04 05:21:22;;;;;;;2.38;1.90;;;;;;;16.09;36.70;151328.13;5097928;28;20224;-68
2023/05/04 05:23:47;;;;;;;3.08;1.90;;;;;;;15.97;36.73;151297.19;5106134;28;20035;-66
2023/05/04 05:26:13;;;;;;;1.92;1.60;;;;;;;15.75;36.30;151241.75;5103716;28;20271;-66
2023/05/04 05:28:38;;;;;;;4.15;1.45;;;;;;;15.80;37.25;151255.97;5085785;28;20099;-66
2023/05/04 05:31:04;;;;;;;4.07;1.80;;;;;;;15.48;37.29;151176.13;5103625;28;20043;-66
2023/05/04 05:33:29;;;;;;;5.43;2.20;;;;;;;15.49;36.92;151178.72;5092843;28;20209;-65
2023/05/04 05:35:55;;;;;;;4.90;2.10;;;;;;;15.43;36.00;151163.25;5085513;28;20077;-66
2023/05/04 05:38:21;;;;;;;5.88;2.78;;;;;;;15.11;37.10;151083.47;5088893;28;20332;-66
2023/05/04 05:40:48;;;;;;;4.50;1.80;;;;;;;14.78;36.26;150999.84;5105855;28;20036;-67
2023/05/04 05:43:13;;;;;;;4.85;2.00;;;;;;;14.96;36.03;151044.84;5087857;28;20043;-66
2023/05/04 05:45:39;;;;;;;4.90;2.13;;;;;;;14.41;36.85;150907.16;5101968;28;20019;-65
2023/05/04 05:48:05;;;;;;;4.00;1.98;;;;;;;14.79;37.46;151003.72;5105461;28;20028;-66
2023/05/04 05:50:30;;;;;;;7.18;2.33;;;;;;;14.79;36.87;151003.72;5100947;28;20025;-66
2023/05/04 05:52:56;;;;;;;5.78;2.05;;;;;;;14.81;37.13;151007.56;5085331;28;20086;-66
2023/05/04 05:55:22;;;;;;;1.60;1.40;;;;;;;14.70;35.65;150979.28;5085227;28;20040;-66
2023/05/04 05:57:47;;;;;;;4.50;1.67;;;;;;;14.64;36.24;150966.38;5082517;28;20035;-66
2023/05/04 06:00:13;;;;;;;1.83;1.27;;;;;;;14.32;35.81;150886.63;5105349;28;20221;-66
2023/05/04 06:02:39;;;;;;;5.03;1.75;;;;;;;14.33;36.42;150889.16;5085004;28;20213;-65
2023/05/04 06:05:05;;;;;;;4.28;1.67;;;;;;;14.57;36.35;150948.34;5085916;28;20064;-65
2023/05/04 06:07:30;;;;;;;2.60;1.65;;;;;;;14.63;37.06;150963.78;5105282;28;20043;-65
2023/05/04 06:09:56;;;;;;;2.25;1.98;;;;;;;14.55;36.81;150943.22;5088629;28;20090;-64
2023/05/04 06:12:22;;;;;;;4.88;2.15;;;;;;;14.53;35.93;150938.03;5096437;28;20048;-65
2023/05/04 06:14:47;;;;;;;4.72;1.80;;;;;;;14.56;36.54;150945.75;5098335;28;20298;-66
2023/05/04 06:17:13;;;;;;;3.05;1.80;;;;;;;14.53;36.92;150936.75;5097792;28;20237;-66
2023/05/04 06:19:39;;;;;;;3.00;1.67;;;;;;;14.44;39.11;150914.91;5084722;28;20059;-64
2023/05/04 06:22:04;;;;;;;3.22;1.52;;;;;;;14.51;35.78;150932.91;5084223;28;20077;-66
2023/05/04 06:24:31;;;;;;;2.53;1.70;;;;;;;14.52;36.55;150935.44;5092109;28;20054;-66
2023/05/04 06:26:57;;;;;;;2.63;1.23;;;;;;;14.62;35.49;150959.94;5075613;28;20034;-65
2023/05/04 06:29:23;;;;;;;4.40;1.50;;;;;;;14.37;36.29;150896.91;5084917;28;20063;-71
2023/05/04 06:31:49;;;;;;;5.30;1.45;;;;;;;14.69;37.20;150976.69;5091538;28;20020;-71
2023/05/04 06:34:18;;;;;;;2.47;1.60;;;;;;;14.67;36.83;150972.81;5086495;28;20059;-71
2023/05/04 06:36:44;;;;;;;2.40;1.50;;;;;;;14.82;35.80;151011.44;5099180;28;20047;-69
2023/05/04 06:39:10;;;;;;;1.52;1.33;;;;;;;14.66;34.07;150971.56;5105213;28;20332;-71
2023/05/04 06:41:36;;;;;;;3.17;1.35;;;;;;;14.44;33.98;150914.91;5105256;28;20016;-70
2023/05/04 06:44:03;;;;;;;2.05;1.50;;;;;;;14.28;34.10;150876.31;5086809;28;20023;-70
2023/05/04 06:46:28;;;;;;;4.00;1.55;;;;;;;14.42;33.47;150911.06;5102344;28;20081;-70
2023/05/04 06:48:54;;;;;;;3.58;1.67;;;;;;;14.54;34.16;150940.63;5104739;28;20228;-72
2023/05/04 06:51:20;;;;;;;2.97;1.05;;;;;;;14.24;33.04;150866.03;5104763;28;20053;-72
2023/05/04 06:53:46;;;;;;;5.13;2.42;;;;;;;14.14;33.71;150840.31;5098124;28;20025;-70
2023/05/04 06:56:12;;;;;;;4.25;1.83;;;;;;;14.26;33.61;150869.88;5086056;28;20024;-71
2023/05/04 06:58:37;;;;;;;10.48;1.85;;;;;;;14.25;33.85;150867.28;5104003;28;20088;-65
2023/05/04 07:01:03;;;;;;;2.95;1.30;;;;;;;14.19;33.46;150851.88;5086500;28;20351;-65
2023/05/04 07:03:28;;;;;;;2.80;1.83;;;;;;;14.34;33.05;150890.47;5078166;28;20035;-66
2023/05/04 07:05:54;;;;;;;2.58;1.67;;;;;;;14.29;32.89;150878.91;5097187;28;20275;-65
2023/05/04 07:08:20;;;;;;;1.52;1.10;;;;;;;14.15;32.88;150844.16;5083014;28;20053;-65
2023/05/04 07:10:45;;;;;;;1.92;1.25;;;;;;;14.26;33.92;150869.88;5082811;28;20044;-65
2023/05/04 07:13:12;;;;;;;1.92;1.10;;;;;;;14.18;32.80;150850.59;5100769;28;20020;-65
2023/05/04 07:15:38;;;;;;;3.97;1.17;;;;;;;14.43;33.81;150913.59;5097763;28;20065;-64
2023/05/04 07:18:04;;;;;;;1.52;1.27;;;;;;;14.35;31.85;150891.72;5091956;28;20028;-66
2023/05/04 07:20:29;;;;;;;2.97;1.60;;;;;;;14.27;33.40;150872.47;5103777;28;20024;-66
2023/05/04 07:22:55;;;;;;;4.32;1.70;;;;;;;14.37;32.38;150896.91;5103757;28;20028;-66
2023/05/04 07:25:26;;;;;;;3.33;1.30;;;;;;;14.43;33.33;150912.31;5103894;28;20104;-65
2023/05/04 07:27:52;;;;;;;2.88;1.48;;;;;;;14.50;32.22;150931.59;5088698;28;20024;-64
2023/05/04 07:30:18;;;;;;;1.95;1.30;;;;;;;14.57;32.97;150947.06;5083184;28;20024;-66
2023/05/04 07:32:44;;;;;;;2.40;1.48;;;;;;;14.69;32.42;150976.69;5097856;28;20224;-65
2023/05/04 07:35:10;;;;;;;2.08;1.58;;;;;;;14.80;33.44;151005.00;5102773;28;20024;-65
2023/05/04 07:37:35;;;;;;;5.70;1.80;;;;;;;14.83;32.46;151012.69;5083085;28;20034;-66
2023/05/04 07:40:04;;;;;;;1.88;1.60;;;;;;;14.67;31.89;150974.09;5098542;28;20232;-65
2023/05/04 07:42:31;;;;;;;4.95;1.80;;;;;;;14.80;32.36;151005.00;5103601;28;20032;-65
2023/05/04 07:44:57;;;;;;;4.85;1.75;;;;;;;14.64;32.45;150965.13;5100780;28;20020;-65
2023/05/04 07:47:23;;;;;;;1.70;1.55;;;;;;;14.52;32.04;150934.19;5103309;28;20032;-66
2023/05/04 07:49:50;;;;;;;4.10;1.80;;;;;;;14.47;32.51;150923.88;5103379;28;20032;-66
2023/05/04 07:52:15;;;;;;;5.78;1.73;;;;;;;14.56;32.57;150945.75;5101735;28;20027;-65
2023/05/04 07:54:41;;;;;;;4.03;1.55;;;;;;;14.71;32.22;150981.81;5103112;28;20030;-65
2023/05/04 07:57:06;;;;;;;5.47;1.60;;;;;;;14.77;33.76;150998.53;5094453;28;20370;-65
2023/05/04 07:59:32;;;;;;;4.97;1.75;;;;;;;14.91;33.37;151033.28;5086506;28;20024;-66
2023/05/04 08:01:58;;;;;;;3.60;1.90;;;;;;;14.61;31.52;150957.34;5102901;28;20038;-65
2023/05/04 08:04:24;;;;;;;2.90;1.60;;;;;;;14.66;31.26;150970.25;5102524;28;20048;-66
2023/05/04 08:06:49;;;;;;;6.38;1.70;;;;;;;14.87;33.48;151023.00;5088621;28;20028;-67
2023/05/04 08:09:15;;;;;;;4.97;1.60;;;;;;;14.87;33.07;151023.00;5088890;28;20044;-65
2023/05/04 08:11:41;;;;;;;2.47;1.50;;;;;;;14.73;30.50;150988.25;5103102;28;20027;-66
2023/05/04 08:14:07;;;;;;;3.78;1.55;;;;;;;14.54;31.36;150940.63;5102906;28;20368;-65
2023/05/04 08:16:33;;;;;;;2.55;1.40;;;;;;;14.76;31.56;150994.69;5082489;28;20029;-66
2023/05/04 08:19:00;;;;;;;2.75;1.60;;;;;;;14.80;30.36;151006.25;5098186;28;20065;-65
2023/05/04 08:21:26;;;;;;;2.75;1.42;;;;;;;14.91;30.11;151032.03;5102895;28;20024;-67
2023/05/04 08:23:52;;;;;;;2.13;1.65;;;;;;;15.02;31.18;151061.59;5102760;28;20106;-65
2023/05/04 08:26:18;;;;;;;1.50;1.40;;;;;;;15.02;32.07;151061.59;5101447;28;20023;-65
2023/05/04 08:28:45;;;;;;;3.42;1.77;;;;;;;15.10;32.32;151079.63;5082493;28;20050;-66
2023/05/04 08:31:14;;;;;;;1.98;1.40;;;;;;;15.11;30.48;151082.19;5099667;28;20159;-66
2023/05/04 08:33:39;;;;;;;1.80;1.70;;;;;;;14.96;29.90;151046.19;5102688;28;20087;-66
2023/05/04 08:36:07;;;;;;;2.70;1.98;;;;;;;14.95;29.88;151043.59;5094861;28;20035;-66
2023/05/04 08:38:32;;;;;;;2.53;1.60;;;;;;;15.19;29.42;151102.75;5100616;28;20040;-67
2023/05/04 08:41:02;;;;;;;3.78;1.85;;;;;;;15.21;29.72;151107.94;5101988;28;20093;-66
2023/05/04 08:43:28;;;;;;;3.65;1.70;;;;;;;15.18;28.50;151101.47;5099536;28;20020;-67
2023/05/04 08:45:54;;;;;;;2.65;1.77;;;;;;;15.06;28.92;151070.59;5100822;28;20038;-68
2023/05/04 08:48:19;;;;;;;4.30;2.00;;;;;;;15.02;29.52;151061.59;5095109;28;20016;-65
2023/05/04 08:50:46;;;;;;;4.20;1.88;;;;;;;14.77;30.93;150997.28;5093304;28;20070;-66
2023/05/04 08:53:13;;;;;;;3.08;1.92;;;;;;;14.93;31.64;151038.41;5090995;28;20029;-66
2023/05/04 08:55:41;;;;;;;3.97;1.90;;;;;;;14.84;31.10;151015.28;5092133;28;20028;-66
2023/05/04 08:58:11;;;;;;;3.70;2.00;;;;;;;14.82;31.31;151010.09;5092971;28;20066;-66
2023/05/04 09:00:37;;;;;;;3.47;2.38;;;;;;;14.52;31.05;150935.44;5097245;28;20020;-65
2023/05/04 09:03:04;;;;;;;2.45;1.98;;;;;;;14.45;30.83;150917.44;5095322;28;20029;-66
2023/05/04 09:05:31;;;;;;;7.13;2.22;;;;;;;14.39;30.80;150902.03;5084186;28;20068;-67
2023/05/04 09:07:57;;;;;;;7.05;2.67;;;;;;;14.22;30.57;150859.59;5102106;28;20032;-66
2023/05/04 09:10:23;;;;;;;4.28;2.08;;;;;;;14.11;30.63;150833.88;5101752;28;20032;-66
2023/05/04 09:12:52;;;;;;;4.13;2.45;;;;;;;14.03;31.49;150812.03;5099403;28;20077;-65
2023/05/04 09:15:19;;;;;;;3.92;2.47;;;;;;;13.49;29.77;150678.31;5099170;28;20329;-66
2023/05/04 09:18:06;;;;;;;5.82;2.47;;;;;;;13.90;31.38;150779.88;5100564;28;20016;-66
2023/05/04 09:20:52;;;;;;;6.70;2.45;;;;;;;14.11;31.31;150833.88;5100222;28;20226;-66
2023/05/04 09:23:17;;;;;;;5.88;2.22;;;;;;;14.06;30.45;150819.72;5100769;28;20040;-65
2023/05/04 09:25:47;;;;;;;4.47;2.72;;;;;;;14.30;31.27;150880.16;5101833;28;20035;-64
2023/05/04 09:28:14;;;;;;;3.47;2.13;;;;;;;14.50;30.12;150930.31;5099068;28;20213;-66
2023/05/04 09:30:39;;;;;;;3.63;2.30;;;;;;;14.75;30.04;150992.09;5101777;28;20020;-66
2023/05/04 09:33:05;;;;;;;4.82;2.42;;;;;;;14.77;29.03;150997.28;5101554;28;20020;-66
2023/05/04 09:35:31;;;;;;;2.78;2.20;;;;;;;15.08;30.30;151074.44;5101533;28;20027;-65
2023/05/04 09:37:57;;;;;;;5.32;2.38;;;;;;;15.17;31.16;151097.63;5101802;28;20514;-66
2023/05/04 09:40:34;;;;;;;5.60;2.65;;;;;;;14.99;29.66;151053.88;5101909;28;20117;-66
2023/05/04 09:43:00;;;;;;;6.22;2.40;;;;;;;15.28;29.67;151124.66;5083743;28;20030;-65
2023/05/04 09:45:37;;;;;;;2.85;2.10;;;;;;;15.36;30.46;151145.22;5090308;28;20020;-65
2023/05/04 09:48:17;;;;;;;6.75;2.38;;;;;;;15.32;29.49;151134.91;5101776;28;20186;-66
2023/05/04 09:51:02;;;;;;;6.20;2.30;;;;;;;15.54;31.68;151190.28;5097775;28;20033;-65
2023/05/04 09:53:30;;;;;;;5.88;2.33;;;;;;;15.62;31.52;151209.56;5093610;28;20096;-65
2023/05/04 09:56:12;;;;;;;4.78;2.60;;;;;;;15.17;31.13;151098.91;5081551;28;20035;-65
2023/05/04 09:58:39;;;;;;;5.05;2.30;;;;;;;15.24;30.94;151115.63;5063423;28;20027;-65
2023/05/04 10:01:05;;;;;;;8.60;2.67;;;;;;;15.19;31.09;151102.75;5063503;28;20122;-65
2023/05/04 10:03:31;;;;;;;3.83;2.40;;;;;;;15.04;32.52;151064.19;5095692;28;20024;-65
2023/05/04 10:05:59;;;;;;;5.25;2.53;;;;;;;15.16;31.49;151096.34;5081305;28;20048;-66
2023/05/04 10:08:25;;;;;;;3.55;2.70;;;;;;;15.19;32.67;151104.06;5080449;28;20032;-66
2023/05/04 10:10:51;;;;;;;5.47;2.55;;;;;;;15.00;30.49;151056.44;5105351;28;20219;-65
2023/05/04 10:13:17;;;;;;;3.17;2.63;;;;;;;14.88;29.68;151025.59;5105573;28;20081;-65
2023/05/04 10:16:07;;;;;;;4.88;2.25;;;;;;;15.02;30.21;151061.59;5092843;28;20024;-65
2023/05/04 10:18:47;;;;;;;6.53;2.58;;;;;;;15.05;30.06;151068.03;5078176;28;20028;-66
2023/05/04 10:21:31;;;;;;;5.90;2.35;;;;;;;15.28;30.47;151124.66;5105340;28;20367;-65
2023/05/04 10:24:00;;;;;;;4.60;2.42;;;;;;;15.27;29.34;151122.09;5105247;28;20055;-66
2023/05/04 10:26:46;;;;;;;5.75;2.30;;;;;;;15.21;29.55;151106.66;5103723;28;20385;-65
2023/05/04 10:29:23;;;;;;;5.45;2.50;;;;;;;15.30;29.63;151129.78;5084941;28;20289;-65
2023/05/04 10:31:49;;;;;;;8.38;2.70;;;;;;;15.22;28.64;151110.50;5091343;28;20036;-66
2023/05/04 10:34:25;;;;;;;4.30;2.35;;;;;;;15.31;30.04;151133.66;5105342;28;20031;-67
2023/05/04 10:36:51;;;;;;;5.72;2.45;;;;;;;15.34;28.47;151140.09;5105076;28;20087;-65
2023/05/04 10:39:21;;;;;;;4.78;2.20;;;;;;;15.52;29.76;151185.16;5096653;28;20332;-66
2023/05/04 10:41:58;;;;;;;4.10;2.00;;;;;;;15.32;28.39;151136.25;5092623;28;20063;-66
2023/05/04 10:44:24;;;;;;;2.70;1.90;;;;;;;15.45;29.10;151167.09;5104010;28;20316;-67
2023/05/04 10:47:00;;;;;;;5.10;2.47;;;;;;;15.35;28.82;151143.97;5104924;28;20092;-65
2023/05/04 10:49:26;;;;;;;6.45;2.20;;;;;;;15.11;27.90;151082.19;5104759;28;20086;-66
2023/05/04 10:52:08;;;;;;;3.08;2.20;;;;;;;15.22;28.08;151110.50;5091534;28;20278;-65
2023/05/04 10:54:35;;;;;;;;;;;;;;;15.33;31.28;151137.50;5095549;28;20032;-66
2023/05/04 10:57:05;;;;;;;4.40;1.77;;;;;;;15.25;28.75;151116.91;5103080;28;20189;-66
2023/05/04 10:59:31;;;;;;;5.05;2.10;;;;;;;15.50;28.77;151180.00;5103199;28;20023;-66
2023/05/04 11:01:58;;;;;;;4.22;2.03;;;;;;;15.64;29.31;151216.03;5104219;28;20027;-66
2023/05/04 11:04:24;;;;;;;4.43;2.10;;;;;;;15.54;28.77;151191.56;5103200;28;20244;-66
2023/05/04 11:06:56;;;;;;;5.97;2.30;;;;;;;15.54;29.21;151191.56;5102994;28;20028;-66
2023/05/04 11:09:22;;;;;;;3.38;2.13;;;;;;;15.76;28.42;151245.66;5103055;28;20032;-66
2023/05/04 11:11:48;;;;;;;3.47;2.00;;;;;;;15.60;27.22;151205.72;5102804;28;20342;-66
2023/05/04 11:14:27;;;;;;;4.45;2.20;;;;;;;15.35;26.93;151143.97;5094181;28;20103;-66
2023/05/04 11:17:08;;;;;;;6.15;2.70;;;;;;;15.50;29.37;151181.25;5103811;28;20061;-67
2023/05/04 11:19:34;;;;;;;3.28;2.03;;;;;;;15.37;27.96;151147.81;5102607;28;20068;-67
2023/05/04 11:22:01;;;;;;;4.43;1.63;;;;;;;15.61;28.74;151207.03;5103995;28;20047;-66
2023/05/04 11:24:50;;;;;;;2.95;2.00;;;;;;;15.66;27.03;151219.88;5094703;28;20096;-66
2023/05/04 11:27:28;;;;;;;3.88;2.25;;;;;;;15.61;27.44;151207.03;5083735;28;20285;-67
2023/05/04 11:29:54;;;;;;;4.78;2.63;;;;;;;15.50;27.20;151181.25;5083412;28;20063;-66